createdAt,value
2023-04-09T00:00:29.164Z,1.89
2023-04-09T00:01:29.158Z,2.17
2023-04-09T00:02:29.214Z,2.17
2023-04-09T00:03:29.218Z,1.5
2023-04-09T00:04:29.175Z,2
2023-04-09T00:05:29.169Z,1.89
2023-04-09T00:06:29.177Z,1.72
2023-04-09T00:07:29.162Z,1.89
2023-04-09T00:08:29.165Z,2
2023-04-09T00:09:29.172Z,1.89
2023-04-09T00:10:29.157Z,1.72
2023-04-09T00:11:29.169Z,1.61
2023-04-09T00:12:29.183Z,1.89
2023-04-09T00:14:29.189Z,2
2023-04-09T00:15:31.442Z,2
2023-04-09T00:16:29.191Z,2
2023-04-09T00:17:29.203Z,2.28
2023-04-09T00:18:29.210Z,2.28
2023-04-09T00:19:29.192Z,2.44
2023-04-09T00:20:29.222Z,2.44
2023-04-09T00:21:29.188Z,2.17
2023-04-09T00:22:29.234Z,2.17
2023-04-09T00:24:29.217Z,2.44
2023-04-09T00:26:29.211Z,2.44
2023-04-09T00:27:29.233Z,2.28
2023-04-09T00:29:29.209Z,2.17
2023-04-09T00:30:29.208Z,2.17
2023-04-09T00:31:29.253Z,1.61
2023-04-09T00:32:29.225Z,2.17
2023-04-09T00:33:29.230Z,2
2023-04-09T00:35:29.219Z,2.17
2023-04-09T00:36:29.229Z,2.17
2023-04-09T00:37:29.231Z,2.17
2023-04-09T00:38:29.242Z,1.72
2023-04-09T00:39:29.220Z,1.89
2023-04-09T00:40:29.229Z,1.61
2023-04-09T00:41:29.231Z,1.61
2023-04-09T00:42:29.226Z,1.72
2023-04-09T00:43:29.232Z,1.72
2023-04-09T00:45:29.266Z,2.17
2023-04-09T00:46:29.210Z,1.89
2023-04-09T00:47:29.236Z,2.17
2023-04-09T00:48:29.223Z,2
2023-04-09T00:49:29.245Z,1.89
2023-04-09T00:50:29.236Z,2
2023-04-09T00:51:29.249Z,1.89
2023-04-09T00:53:29.243Z,1.89
2023-04-09T00:54:29.278Z,1.89
2023-04-09T00:56:29.254Z,1.5
2023-04-09T00:57:29.256Z,1.72
2023-04-09T00:58:29.246Z,1.72
2023-04-09T00:59:29.254Z,1.61
2023-04-09T01:01:29.316Z,1.61
2023-04-09T01:02:29.323Z,1.72
2023-04-09T01:03:29.307Z,1.72
2023-04-09T01:04:29.258Z,1.89
2023-04-09T01:06:29.269Z,1.61
2023-04-09T01:07:29.264Z,1.5
2023-04-09T01:09:29.267Z,1.5
2023-04-09T01:10:29.297Z,1.61
2023-04-09T01:11:29.266Z,1.72
2023-04-09T01:12:29.267Z,1.72
2023-04-09T01:13:29.290Z,1.61
2023-04-09T01:14:29.267Z,1.72
2023-04-09T01:15:29.286Z,1.61
2023-04-09T01:17:29.319Z,1.72
2023-04-09T01:19:29.284Z,1.61
2023-04-09T01:20:29.355Z,1.72
2023-04-09T01:21:29.283Z,1.5
2023-04-09T01:22:29.283Z,1.61
2023-04-09T01:23:29.292Z,1.33
2023-04-09T01:24:29.303Z,1.72
2023-04-09T01:25:29.292Z,1.61
2023-04-09T01:26:29.341Z,1.5
2023-04-09T01:28:29.304Z,1.72
2023-04-09T01:30:29.338Z,1.5
2023-04-09T01:31:29.364Z,1.72
2023-04-09T01:33:29.302Z,1.61
2023-04-09T01:34:29.313Z,1.61
2023-04-09T01:35:29.333Z,1.61
2023-04-09T01:36:29.315Z,1.72
2023-04-09T01:37:29.313Z,1.61
2023-04-09T01:38:29.332Z,1.5
2023-04-09T01:40:29.324Z,1.61
2023-04-09T01:41:29.320Z,1.72
2023-04-09T01:42:29.340Z,1.89
2023-04-09T01:44:29.315Z,1.72
2023-04-09T01:45:29.333Z,1.61
2023-04-09T01:46:29.473Z,1.61
2023-04-09T01:48:29.330Z,1.89
2023-04-09T01:49:29.332Z,1.72
2023-04-09T01:50:29.342Z,1.89
2023-04-09T01:52:29.338Z,1.72
2023-04-09T01:53:29.346Z,1.72
2023-04-09T01:54:29.350Z,1.72
2023-04-09T01:55:29.339Z,1.72
2023-04-09T01:57:29.340Z,1.89
2023-04-09T01:58:29.362Z,1.89
2023-04-09T01:59:29.332Z,2
2023-04-09T02:00:29.331Z,1.89
2023-04-09T02:01:29.354Z,1.89
2023-04-09T02:02:29.419Z,1.89
2023-04-09T02:03:29.417Z,2.17
2023-04-09T02:05:29.356Z,1.89
2023-04-09T02:07:29.361Z,1.89
2023-04-09T02:08:29.355Z,1.72
2023-04-09T02:09:29.369Z,2
2023-04-09T02:11:29.357Z,2.17
2023-04-09T02:13:29.349Z,2.17
2023-04-09T02:14:29.389Z,2.17
2023-04-09T02:16:29.353Z,2.17
2023-04-09T02:17:29.435Z,2.17
2023-04-09T02:18:29.357Z,2.28
2023-04-09T02:19:29.360Z,2.17
2023-04-09T02:21:29.354Z,2.28
2023-04-09T02:22:29.368Z,2.28
2023-04-09T02:23:29.406Z,2
2023-04-09T02:24:29.367Z,2
2023-04-09T02:25:29.385Z,2.17
2023-04-09T02:26:29.379Z,2.17
2023-04-09T02:27:29.375Z,1.89
2023-04-09T02:28:29.375Z,2
2023-04-09T02:29:29.373Z,2.17
2023-04-09T02:30:29.399Z,2.17
2023-04-09T02:31:29.437Z,1.89
2023-04-09T02:32:29.389Z,2.17
2023-04-09T02:33:29.374Z,2.17
2023-04-09T02:34:29.382Z,2.17
2023-04-09T02:35:29.382Z,1.89
2023-04-09T02:36:29.384Z,2
2023-04-09T02:38:29.386Z,2.44
2023-04-09T02:39:29.396Z,2.44
2023-04-09T02:41:29.397Z,2.17
2023-04-09T02:43:29.383Z,1.89
2023-04-09T02:44:29.385Z,1.72
2023-04-09T02:45:29.397Z,1.89
2023-04-09T02:46:29.428Z,2.17
2023-04-09T02:48:29.385Z,2.17
2023-04-09T02:49:29.398Z,2
2023-04-09T02:51:29.383Z,2
2023-04-09T02:52:29.394Z,1.89
2023-04-09T02:54:29.386Z,1.89
2023-04-09T02:55:29.396Z,1.72
2023-04-09T02:56:29.405Z,1.72
2023-04-09T02:58:29.438Z,1.72
2023-04-09T03:00:29.397Z,1.72
2023-04-09T03:01:29.481Z,1.72
2023-04-09T03:02:29.550Z,1.61
2023-04-09T03:03:29.482Z,1.89
2023-04-09T03:04:29.403Z,2
2023-04-09T03:05:29.387Z,1.89
2023-04-09T03:06:29.413Z,1.89
2023-04-09T03:07:29.419Z,1.89
2023-04-09T03:09:29.434Z,2.17
2023-04-09T03:10:29.411Z,1.89
2023-04-09T03:11:29.400Z,1.72
2023-04-09T03:12:29.401Z,1.72
2023-04-09T03:13:29.408Z,1.72
2023-04-09T03:14:29.433Z,1.72
2023-04-09T03:16:29.412Z,1.89
2023-04-09T03:17:29.449Z,1.72
2023-04-09T03:18:29.437Z,1.72
2023-04-09T03:19:29.405Z,1.72
2023-04-09T03:20:29.428Z,1.61
2023-04-09T03:21:29.412Z,1.61
2023-04-09T03:23:29.422Z,1.72
2023-04-09T03:24:29.416Z,1.61
2023-04-09T03:25:29.423Z,1.61
2023-04-09T03:26:29.420Z,1.61
2023-04-09T03:27:29.423Z,1.61
2023-04-09T03:29:29.420Z,1.33
2023-04-09T03:30:29.422Z,1.61
2023-04-09T03:31:29.437Z,1.5
2023-04-09T03:33:29.428Z,1.72
2023-04-09T03:34:29.458Z,1.61
2023-04-09T03:35:29.434Z,1.61
2023-04-09T03:36:29.430Z,1.33
2023-04-09T03:37:29.419Z,1.72
2023-04-09T03:38:29.428Z,1.72
2023-04-09T03:40:29.439Z,1.72
2023-04-09T03:41:29.422Z,1.72
2023-04-09T03:42:29.436Z,1.61
2023-04-09T03:43:29.424Z,1.72
2023-04-09T03:44:29.432Z,1.61
2023-04-09T03:45:29.432Z,1.72
2023-04-09T03:46:29.461Z,1.72
2023-04-09T03:47:29.447Z,1.61
2023-04-09T03:48:29.451Z,1.61
2023-04-09T03:50:29.453Z,1.61
2023-04-09T03:51:29.432Z,1.5
2023-04-09T03:52:29.462Z,1.61
2023-04-09T03:53:29.442Z,1.61
2023-04-09T03:54:29.432Z,1.72
2023-04-09T03:55:29.446Z,1.72
2023-04-09T03:57:29.448Z,1.33
2023-04-09T03:58:29.438Z,1.72
2023-04-09T03:59:29.427Z,1.89
2023-04-09T04:00:29.433Z,1.61
2023-04-09T04:01:29.432Z,1.72
2023-04-09T04:02:29.541Z,2
2023-04-09T04:03:29.744Z,2
2023-04-09T04:05:29.434Z,2.17
2023-04-09T04:06:29.476Z,2.17
2023-04-09T04:08:29.443Z,2.28
2023-04-09T04:09:29.425Z,1.89
2023-04-09T04:10:29.442Z,1.72
2023-04-09T04:11:29.440Z,2.17
2023-04-09T04:12:29.423Z,2.17
2023-04-09T04:13:29.523Z,2
2023-04-09T04:15:29.446Z,2
2023-04-09T04:16:29.460Z,1.89
2023-04-09T04:17:29.452Z,1.72
2023-04-09T04:18:29.478Z,2
2023-04-09T04:19:29.470Z,2
2023-04-09T04:20:29.452Z,2.17
2023-04-09T04:21:29.442Z,2.28
2023-04-09T04:22:29.495Z,2.44
2023-04-09T04:23:29.442Z,2
2023-04-09T04:24:29.465Z,2.44
2023-04-09T04:25:29.489Z,2.44
2023-04-09T04:26:29.471Z,2.44
2023-04-09T04:27:29.470Z,2.61
2023-04-09T04:28:29.482Z,2.17
2023-04-09T04:29:29.470Z,2.44
2023-04-09T04:30:29.469Z,2.17
2023-04-09T04:31:29.491Z,2
2023-04-09T04:33:29.461Z,2.17
2023-04-09T04:34:29.468Z,2.28
2023-04-09T04:35:29.502Z,2.17
2023-04-09T04:37:29.479Z,2
2023-04-09T04:38:29.509Z,2.17
2023-04-09T04:39:29.463Z,1.89
2023-04-09T04:40:29.468Z,2.17
2023-04-09T04:41:29.482Z,2
2023-04-09T04:42:29.490Z,2.17
2023-04-09T04:43:29.489Z,2.17
2023-04-09T04:44:29.475Z,2.17
2023-04-09T04:45:29.467Z,2.61
2023-04-09T04:46:29.497Z,2.17
2023-04-09T04:48:29.489Z,2.61
2023-04-09T04:49:29.484Z,2.61
2023-04-09T04:50:29.489Z,2.28
2023-04-09T04:51:29.481Z,2
2023-04-09T04:52:29.486Z,1.61
2023-04-09T04:54:29.512Z,2
2023-04-09T04:56:29.528Z,1.61
2023-04-09T04:58:29.490Z,1.61
2023-04-09T04:59:29.489Z,1.61
2023-04-09T05:00:29.484Z,1.89
2023-04-09T05:01:29.508Z,1.72
2023-04-09T05:02:29.643Z,1.72
2023-04-09T05:04:29.495Z,1.72
2023-04-09T05:05:29.498Z,1.72
2023-04-09T05:06:29.504Z,1.5
2023-04-09T05:07:29.511Z,1.61
2023-04-09T05:09:29.520Z,1.61
2023-04-09T05:10:29.531Z,1.5
2023-04-09T05:12:29.533Z,1.72
2023-04-09T05:14:29.509Z,1.72
2023-04-09T05:16:29.555Z,1.72
2023-04-09T05:17:29.546Z,1.33
2023-04-09T05:18:29.517Z,1.61
2023-04-09T05:19:29.545Z,1.89
2023-04-09T05:21:29.535Z,1.89
2023-04-09T05:22:29.533Z,1.61
2023-04-09T05:23:29.531Z,1.72
2023-04-09T05:24:29.533Z,2
2023-04-09T05:26:29.557Z,1.72
2023-04-09T05:27:29.517Z,2
2023-04-09T05:28:29.541Z,2.17
2023-04-09T05:29:29.530Z,2
2023-04-09T05:30:29.555Z,2.17
2023-04-09T05:31:29.580Z,2.17
2023-04-09T05:32:29.556Z,2
2023-04-09T05:33:29.543Z,2.17
2023-04-09T05:34:46.556Z,2.17
2023-04-09T05:36:40.266Z,2.28
2023-04-09T05:37:40.277Z,2.44
2023-04-09T05:38:40.274Z,2.61
2023-04-09T05:39:40.279Z,2.61
2023-04-09T05:41:40.308Z,2.61
2023-04-09T05:43:40.287Z,2.44
2023-04-09T05:44:40.285Z,2.44
2023-04-09T05:45:40.328Z,2.17
2023-04-09T05:47:40.326Z,2.61
2023-04-09T05:48:40.286Z,2.72
2023-04-09T05:49:40.271Z,2.72
2023-04-09T05:50:51.423Z,2.89
2023-04-09T05:52:40.299Z,3
2023-04-09T05:53:40.285Z,3
2023-04-09T05:54:40.281Z,2.89
2023-04-09T05:55:40.290Z,2.72
2023-04-09T05:57:40.322Z,2.89
2023-04-09T05:59:40.306Z,2.89
2023-04-09T06:00:40.281Z,2.89
2023-04-09T06:01:40.322Z,2.72
2023-04-09T06:03:40.411Z,3
2023-04-09T06:04:40.301Z,2.89
2023-04-09T06:05:40.293Z,3
2023-04-09T06:07:40.298Z,3
2023-04-09T06:10:41.415Z,2.72
2023-04-09T06:11:40.296Z,3
2023-04-09T06:12:40.291Z,2.61
2023-04-09T06:13:40.320Z,2.72
2023-04-09T06:15:40.346Z,2.89
2023-04-09T06:16:40.284Z,2.72
2023-04-09T06:17:40.312Z,2.72
2023-04-09T06:19:40.295Z,2.44
2023-04-09T06:20:40.294Z,2.89
2023-04-09T06:21:40.292Z,3
2023-04-09T06:23:40.294Z,3
2023-04-09T06:24:40.302Z,3
2023-04-09T06:26:40.302Z,3.33
2023-04-09T06:27:40.316Z,3
2023-04-09T06:28:40.358Z,3
2023-04-09T06:30:40.286Z,3
2023-04-09T06:31:40.350Z,3
2023-04-09T06:33:40.304Z,3
2023-04-09T06:35:40.304Z,3.44
2023-04-09T06:37:40.295Z,3.56
2023-04-09T06:38:40.297Z,3.56
2023-04-09T06:39:42.523Z,3.56
2023-04-09T06:40:40.294Z,3.17
2023-04-09T06:41:40.290Z,3.44
2023-04-09T06:42:40.305Z,3.17
2023-04-09T06:43:40.303Z,3
2023-04-09T06:44:40.319Z,3.33
2023-04-09T06:45:41.103Z,3.56
2023-04-09T06:47:40.414Z,3.72
2023-04-09T06:48:40.415Z,3.56
2023-04-09T06:49:40.325Z,3.44
2023-04-09T06:50:40.299Z,3.44
2023-04-09T06:51:40.329Z,3
2023-04-09T06:52:40.296Z,3.44
2023-04-09T06:53:40.319Z,3.33
2023-04-09T06:54:40.303Z,3.56
2023-04-09T06:56:40.306Z,3.56
2023-04-09T06:57:40.309Z,4
2023-04-09T06:58:40.312Z,3.56
2023-04-09T06:59:40.304Z,3.72
2023-04-09T07:00:40.314Z,3.83
2023-04-09T07:01:40.750Z,3.56
2023-04-09T07:03:40.449Z,4
2023-04-09T07:04:40.340Z,3.83
2023-04-09T07:05:40.310Z,3.72
2023-04-09T07:06:40.311Z,3.83
2023-04-09T07:08:40.310Z,3.56
2023-04-09T07:09:40.303Z,3.56
2023-04-09T07:10:40.313Z,3.44
2023-04-09T07:11:40.308Z,3.56
2023-04-09T07:12:40.318Z,3.56
2023-04-09T07:14:40.311Z,3.33
2023-04-09T07:15:40.667Z,3.72
2023-04-09T07:16:40.552Z,3.83
2023-04-09T07:17:40.392Z,3.83
2023-04-09T07:19:40.316Z,3.83
2023-04-09T07:20:40.318Z,3.83
2023-04-09T07:21:40.319Z,3.72
2023-04-09T07:23:40.322Z,3.72
2023-04-09T07:24:40.323Z,3.72
2023-04-09T07:26:40.342Z,3.72
2023-04-09T07:28:40.320Z,3.44
2023-04-09T07:30:40.319Z,3.83
2023-04-09T07:31:40.333Z,3.83
2023-04-09T07:32:40.358Z,3.72
2023-04-09T07:33:40.573Z,3.56
2023-04-09T07:34:40.316Z,3.83
2023-04-09T07:35:40.336Z,3.56
2023-04-09T07:37:40.336Z,4
2023-04-09T07:38:40.330Z,3.72
2023-04-09T07:39:40.325Z,4
2023-04-09T07:41:40.339Z,4.17
2023-04-09T07:43:40.332Z,3.83
2023-04-09T07:45:40.326Z,4.17
2023-04-09T07:46:40.483Z,4.56
2023-04-09T07:47:40.340Z,4.17
2023-04-09T07:49:40.344Z,4
2023-04-09T07:51:40.334Z,4.44
2023-04-09T07:52:40.337Z,4.28
2023-04-09T07:53:40.332Z,4.28
2023-04-09T07:54:40.332Z,4.72
2023-04-09T07:55:40.321Z,4.17
2023-04-09T07:56:40.336Z,4.44
2023-04-09T07:57:40.319Z,4.72
2023-04-09T07:58:40.339Z,4.56
2023-04-09T07:59:40.326Z,4.72
2023-04-09T08:00:40.323Z,4.72
2023-04-09T08:01:40.348Z,4.56
2023-04-09T08:03:40.463Z,4.28
2023-04-09T08:05:40.364Z,5
2023-04-09T08:07:40.330Z,4.89
2023-04-09T08:09:40.332Z,4.72
2023-04-09T08:10:40.330Z,4.89
2023-04-09T08:11:40.347Z,4.89
2023-04-09T08:12:40.337Z,5
2023-04-09T08:13:40.327Z,5
2023-04-09T08:14:40.329Z,5.17
2023-04-09T08:16:40.360Z,5.61
2023-04-09T08:17:40.350Z,5.44
2023-04-09T08:19:41.889Z,5
2023-04-09T08:20:40.324Z,5.61
2023-04-09T08:21:40.353Z,5.61
2023-04-09T08:22:40.326Z,5.33
2023-04-09T08:23:40.340Z,4.78
2023-04-09T08:24:40.340Z,5
2023-04-09T08:25:40.329Z,5.44
2023-04-09T08:27:40.325Z,6
2023-04-09T08:29:40.333Z,5.67
2023-04-09T08:30:40.340Z,5.39
2023-04-09T08:31:40.352Z,4.67
2023-04-09T08:32:40.347Z,4.83
2023-04-09T08:33:40.348Z,4.5
2023-04-09T08:34:40.339Z,4.39
2023-04-09T08:36:40.354Z,4.83
2023-04-09T08:37:40.376Z,4.83
2023-04-09T08:38:40.337Z,4.5
2023-04-09T08:39:40.342Z,4.94
2023-04-09T08:41:40.344Z,4.94
2023-04-09T08:42:40.342Z,5.39
2023-04-09T08:43:53.089Z,5.22
2023-04-09T08:45:40.386Z,5.67
2023-04-09T08:46:40.351Z,5.56
2023-04-09T08:47:40.413Z,5.67
2023-04-09T08:49:40.342Z,5.78
2023-04-09T08:50:40.348Z,6.22
2023-04-09T08:52:40.343Z,6.78
2023-04-09T08:53:40.380Z,6.22
2023-04-09T08:55:40.347Z,5.94
2023-04-09T08:56:40.361Z,5.67
2023-04-09T08:58:40.349Z,5.11
2023-04-09T09:00:40.356Z,5.39
2023-04-09T09:01:40.403Z,5.39
2023-04-09T09:02:40.473Z,5.39
2023-04-09T09:03:40.444Z,5.94
2023-04-09T09:04:40.347Z,5.94
2023-04-09T09:05:40.360Z,5.67
2023-04-09T09:06:40.761Z,6.22
2023-04-09T09:07:40.354Z,5.94
2023-04-09T09:09:40.383Z,5.78
2023-04-09T09:11:40.344Z,5.94
2023-04-09T09:12:40.345Z,6.22
2023-04-09T09:13:40.360Z,6.22
2023-04-09T09:14:40.351Z,6.22
2023-04-09T09:16:40.450Z,6.22
2023-04-09T09:17:40.355Z,6.67
2023-04-09T09:18:40.346Z,7.22
2023-04-09T09:19:40.355Z,6.94
2023-04-09T09:20:40.347Z,6.94
2023-04-09T09:21:40.368Z,7.11
2023-04-09T09:23:40.341Z,7.11
2023-04-09T09:24:40.367Z,7.67
2023-04-09T09:25:40.380Z,7.67
2023-04-09T09:27:40.374Z,7.5
2023-04-09T09:28:40.351Z,8.28
2023-04-09T09:29:40.355Z,8.28
2023-04-09T09:31:40.354Z,7.39
2023-04-09T09:32:40.430Z,7.39
2023-04-09T09:34:40.348Z,8.11
2023-04-09T09:35:40.372Z,7.94
2023-04-09T09:36:40.366Z,8.61
2023-04-09T09:38:40.356Z,7.11
2023-04-09T09:39:40.383Z,6.67
2023-04-09T09:41:40.398Z,6.39
2023-04-09T09:42:40.352Z,6.22
2023-04-09T09:43:40.368Z,6.39
2023-04-09T09:45:40.360Z,6.22
2023-04-09T09:46:40.405Z,6.67
2023-04-09T09:47:40.403Z,6.22
2023-04-09T09:48:40.363Z,7.39
2023-04-09T09:49:40.356Z,7.22
2023-04-09T09:50:40.363Z,6.78
2023-04-09T09:52:40.372Z,7.67
2023-04-09T09:53:40.365Z,7.5
2023-04-09T09:54:40.369Z,6.94
2023-04-09T09:55:40.367Z,7.67
2023-04-09T09:56:40.359Z,7.11
2023-04-09T09:57:40.388Z,7.5
2023-04-09T09:59:40.383Z,6.67
2023-04-09T10:00:40.399Z,7.22
2023-04-09T10:01:40.471Z,7.22
2023-04-09T10:02:40.472Z,7.5
2023-04-09T10:03:40.373Z,7.22
2023-04-09T10:04:40.374Z,6.5
2023-04-09T10:05:40.379Z,6.39
2023-04-09T10:07:40.421Z,7.39
2023-04-09T10:09:40.382Z,8.39
2023-04-09T10:10:40.365Z,8.39
2023-04-09T10:11:40.385Z,8.39
2023-04-09T10:13:40.406Z,8.39
2023-04-09T10:15:40.407Z,7.94
2023-04-09T10:16:40.384Z,7.94
2023-04-09T10:17:40.382Z,7.94
2023-04-09T10:18:40.378Z,7.67
2023-04-09T10:19:40.374Z,7.5
2023-04-09T10:20:40.378Z,7.94
2023-04-09T10:21:42.280Z,8.78
2023-04-09T10:22:40.414Z,9.67
2023-04-09T10:23:40.360Z,9.22
2023-04-09T10:24:40.376Z,8.78
2023-04-09T10:25:40.395Z,9.06
2023-04-09T10:26:40.372Z,8.5
2023-04-09T10:27:40.378Z,7.5
2023-04-09T10:28:40.383Z,7.5
2023-04-09T10:29:40.403Z,7.11
2023-04-09T10:31:40.408Z,7.11
2023-04-09T10:33:40.383Z,6.39
2023-04-09T10:34:40.396Z,7.11
2023-04-09T10:35:40.455Z,7.94
2023-04-09T10:37:40.381Z,7.94
2023-04-09T10:38:40.380Z,7.5
2023-04-09T10:39:40.378Z,6.94
2023-04-09T10:40:40.372Z,6.94
2023-04-09T10:41:40.387Z,7.39
2023-04-09T10:42:40.379Z,7.5
2023-04-09T10:43:40.390Z,7.67
2023-04-09T10:45:40.427Z,7.94
2023-04-09T10:46:40.401Z,8.11
2023-04-09T10:47:40.465Z,8.11
2023-04-09T10:49:40.391Z,7.5
2023-04-09T10:50:40.386Z,7.78
2023-04-09T10:51:40.391Z,7.78
2023-04-09T10:52:40.390Z,6.5
2023-04-09T10:54:40.399Z,7.67
2023-04-09T10:55:40.432Z,7.94
2023-04-09T10:56:40.409Z,7.94
2023-04-09T10:57:40.391Z,7.11
2023-04-09T10:58:40.397Z,7.5
2023-04-09T10:59:40.392Z,7.22
2023-04-09T11:00:40.406Z,7.67
2023-04-09T11:01:40.451Z,7.39
2023-04-09T11:03:40.435Z,7.5
2023-04-09T11:04:40.438Z,8.28
2023-04-09T11:05:40.404Z,8.11
2023-04-09T11:07:40.440Z,7.78
2023-04-09T11:08:40.391Z,7.94
2023-04-09T11:09:40.399Z,7.39
2023-04-09T11:10:40.402Z,7.78
2023-04-09T11:11:40.398Z,7.78
2023-04-09T11:12:40.407Z,8.39
2023-04-09T11:14:40.402Z,7.78
2023-04-09T11:17:40.429Z,7.94
2023-04-09T11:19:40.400Z,8.39
2023-04-09T11:21:40.399Z,8.5
2023-04-09T11:23:40.404Z,7.94
2023-04-09T11:24:40.404Z,7.5
2023-04-09T11:25:40.398Z,7.61
2023-04-09T11:26:40.405Z,7.67
2023-04-09T11:27:40.405Z,7.5
2023-04-09T11:28:40.384Z,7.78
2023-04-09T11:29:40.400Z,8.11
2023-04-09T11:30:40.405Z,7.94
2023-04-09T11:32:40.420Z,7.11
2023-04-09T11:33:40.437Z,7
2023-04-09T11:35:40.428Z,7.33
2023-04-09T11:36:40.402Z,6.33
2023-04-09T11:38:40.405Z,6.72
2023-04-09T11:39:40.410Z,7.17
2023-04-09T11:41:40.416Z,7.17
2023-04-09T11:42:40.401Z,7.44
2023-04-09T11:43:40.410Z,6.89
2023-04-09T11:44:40.415Z,6.72
2023-04-09T11:45:40.408Z,6.44
2023-04-09T11:46:40.427Z,6.33
2023-04-09T11:48:40.416Z,6
2023-04-09T11:49:40.442Z,5.89
2023-04-09T11:50:40.407Z,6
2023-04-09T11:51:40.405Z,6
2023-04-09T11:52:40.419Z,6.33
2023-04-09T11:53:40.413Z,6.44
2023-04-09T11:54:40.420Z,5.89
2023-04-09T11:55:40.410Z,6
2023-04-09T11:56:40.421Z,5.61
2023-04-09T11:57:40.417Z,5.5
2023-04-09T11:58:40.424Z,5.61
2023-04-09T11:59:40.404Z,5.72
2023-04-09T12:00:40.437Z,5.5
2023-04-09T12:01:40.517Z,5.61
2023-04-09T12:02:40.488Z,5.61
2023-04-09T12:03:40.606Z,5.61
2023-04-09T12:04:40.449Z,5.89
2023-04-09T12:05:42.177Z,5.61
2023-04-09T12:07:42.290Z,5.72
2023-04-09T12:08:40.416Z,5.72
2023-04-09T12:09:40.425Z,5.5
2023-04-09T12:10:40.419Z,6
2023-04-09T12:11:40.426Z,6
2023-04-09T12:13:40.416Z,5.94
2023-04-09T12:14:40.418Z,5.78
2023-04-09T12:15:40.434Z,5.78
2023-04-09T12:17:40.467Z,5.56
2023-04-09T12:19:40.434Z,5.94
2023-04-09T12:20:40.430Z,5.94
2023-04-09T12:21:40.445Z,5.94
2023-04-09T12:23:40.451Z,6.06
2023-04-09T12:25:40.449Z,6.06
2023-04-09T12:26:40.443Z,6.39
2023-04-09T12:28:40.424Z,7.11
2023-04-09T12:29:40.478Z,6.67
2023-04-09T12:31:40.488Z,6.67
2023-04-09T12:33:40.535Z,6.78
2023-04-09T12:34:40.438Z,6.94
2023-04-09T12:36:40.452Z,6.67
2023-04-09T12:37:40.474Z,6.78
2023-04-09T12:38:40.430Z,7.11
2023-04-09T12:39:40.426Z,6.94
2023-04-09T12:40:40.440Z,7.22
2023-04-09T12:41:40.427Z,7.11
2023-04-09T12:42:40.428Z,6.94
2023-04-09T12:43:40.435Z,7.22
2023-04-09T12:44:40.437Z,6.94
2023-04-09T12:45:40.453Z,7.22
2023-04-09T12:46:40.440Z,7.11
2023-04-09T12:48:40.441Z,6.67
2023-04-09T12:50:40.428Z,7.11
2023-04-09T12:51:40.432Z,7.5
2023-04-09T12:52:40.438Z,7.39
2023-04-09T12:53:40.468Z,7.78
2023-04-09T12:54:40.426Z,7.11
2023-04-09T12:55:42.272Z,6.94
2023-04-09T12:57:40.444Z,6.94
2023-04-09T12:58:40.445Z,6.94
2023-04-09T12:59:40.436Z,6.94
2023-04-09T13:00:40.451Z,6.78
2023-04-09T13:01:42.083Z,6.5
2023-04-09T13:02:40.547Z,6.94
2023-04-09T13:03:40.607Z,6.94
2023-04-09T13:04:40.466Z,7.39
2023-04-09T13:05:40.459Z,7.5
2023-04-09T13:07:42.786Z,6.94
2023-04-09T13:09:40.489Z,6.67
2023-04-09T13:11:40.446Z,6.67
2023-04-09T13:13:42.607Z,6.67
2023-04-09T13:14:40.440Z,6.39
2023-04-09T13:15:40.455Z,6.67
2023-04-09T13:16:40.517Z,6.67
2023-04-09T13:17:40.490Z,6.67
2023-04-09T13:18:40.455Z,6.22
2023-04-09T13:19:42.544Z,6.5
2023-04-09T13:20:40.457Z,6.39
2023-04-09T13:21:40.447Z,6.67
2023-04-09T13:22:40.475Z,6.22
2023-04-09T13:23:40.465Z,6.78
2023-04-09T13:24:40.449Z,6.67
2023-04-09T13:25:40.480Z,7.5
2023-04-09T13:26:40.451Z,7.39
2023-04-09T13:27:40.474Z,7.5
2023-04-09T13:28:40.456Z,7.22
2023-04-09T13:29:40.456Z,7.11
2023-04-09T13:30:40.502Z,6.78
2023-04-09T13:31:40.455Z,6.78
2023-04-09T13:32:40.474Z,7.22
2023-04-09T13:33:40.456Z,6.94
2023-04-09T13:34:40.466Z,6.94
2023-04-09T13:35:40.470Z,7.11
2023-04-09T13:36:40.455Z,7.67
2023-04-09T13:37:40.465Z,7.5
2023-04-09T13:38:40.476Z,7.67
2023-04-09T13:39:40.454Z,7.94
2023-04-09T13:40:40.453Z,7.94
2023-04-09T13:41:40.494Z,7.94
2023-04-09T13:43:40.466Z,7.67
2023-04-09T13:44:40.452Z,7.5
2023-04-09T13:45:40.454Z,7.39
2023-04-09T13:46:40.487Z,7.78
2023-04-09T13:47:40.481Z,7.11
2023-04-09T13:48:40.462Z,7.78
2023-04-09T13:49:40.467Z,8.11
2023-04-09T13:51:40.475Z,8.78
2023-04-09T13:52:40.485Z,8.5
2023-04-09T13:54:40.519Z,9.06
2023-04-09T13:55:40.461Z,9.06
2023-04-09T13:56:40.483Z,8.61
2023-04-09T13:57:40.500Z,8.78
2023-04-09T13:59:40.472Z,9.5
2023-04-09T14:00:40.467Z,8.78
2023-04-09T14:01:40.545Z,8.94
2023-04-09T14:03:40.525Z,8.78
2023-04-09T14:04:40.474Z,8.5
2023-04-09T14:05:40.473Z,9.06
2023-04-09T14:06:40.470Z,8.94
2023-04-09T14:08:40.482Z,9.5
2023-04-09T14:09:40.467Z,8.78
2023-04-09T14:10:40.495Z,8.78
2023-04-09T14:11:40.466Z,8.94
2023-04-09T14:13:40.485Z,8.5
2023-04-09T14:14:40.464Z,8.61
2023-04-09T14:15:40.481Z,9.22
2023-04-09T14:17:40.559Z,8.39
2023-04-09T14:19:40.486Z,8.94
2023-04-09T14:20:40.471Z,8.94
2023-04-09T14:22:40.476Z,8.94
2023-04-09T14:23:40.472Z,8.78
2023-04-09T14:24:40.596Z,9.67
2023-04-09T14:25:40.489Z,9.22
2023-04-09T14:26:40.478Z,9.06
2023-04-09T14:28:40.487Z,8.78
2023-04-09T14:29:40.538Z,8.78
2023-04-09T14:30:40.474Z,9.06
2023-04-09T14:31:40.590Z,9.06
2023-04-09T14:32:40.552Z,8.94
2023-04-09T14:33:40.475Z,8.94
2023-04-09T14:35:40.495Z,8.78
2023-04-09T14:36:40.486Z,8.78
2023-04-09T14:37:40.479Z,8.5
2023-04-09T14:39:40.491Z,8.11
2023-04-09T14:41:40.479Z,8.33
2023-04-09T14:42:40.482Z,8.33
2023-04-09T14:43:40.480Z,8
2023-04-09T14:45:40.505Z,7.72
2023-04-09T14:47:40.540Z,7.72
2023-04-09T14:48:40.498Z,7.72
2023-04-09T14:49:40.491Z,7.89
2023-04-09T14:50:40.492Z,8
2023-04-09T14:51:40.495Z,8.17
2023-04-09T14:53:40.494Z,8.33
2023-04-09T14:55:40.492Z,8
2023-04-09T14:57:40.519Z,7.72
2023-04-09T14:59:40.494Z,8.44
2023-04-09T15:00:40.499Z,8.33
2023-04-09T15:01:40.622Z,9
2023-04-09T15:02:40.672Z,8.61
2023-04-09T15:03:40.636Z,7.17
2023-04-09T15:05:40.495Z,7.61
2023-04-09T15:06:40.538Z,7.61
2023-04-09T15:07:40.482Z,7.44
2023-04-09T15:08:40.502Z,7.17
2023-04-09T15:09:40.538Z,6.89
2023-04-09T15:11:40.498Z,6.44
2023-04-09T15:13:40.506Z,6
2023-04-09T15:15:40.501Z,5.61
2023-04-09T15:17:40.550Z,5.33
2023-04-09T15:18:40.495Z,5.17
2023-04-09T15:19:40.495Z,5.33
2023-04-09T15:21:40.499Z,5.33
2023-04-09T15:22:40.497Z,5.5
2023-04-09T15:23:40.511Z,5.33
2023-04-09T15:24:40.498Z,5.5
2023-04-09T15:25:40.514Z,5.5
2023-04-09T15:26:40.492Z,5.61
2023-04-09T15:27:40.513Z,5.61
2023-04-09T15:29:40.572Z,5.61
2023-04-09T15:31:41.541Z,5.61
2023-04-09T15:32:40.575Z,6
2023-04-09T15:34:40.505Z,6
2023-04-09T15:35:40.566Z,6
2023-04-09T15:37:40.501Z,6
2023-04-09T15:39:40.523Z,5.72
2023-04-09T15:40:40.499Z,5.89
2023-04-09T15:41:40.504Z,5.61
2023-04-09T15:42:40.495Z,5.72
2023-04-09T15:43:40.511Z,5.61
2023-04-09T15:44:40.505Z,5.72
2023-04-09T15:45:40.511Z,5.33
2023-04-09T15:47:40.527Z,5.5
2023-04-09T15:48:40.518Z,5.61
2023-04-09T15:49:40.533Z,5.61
2023-04-09T15:51:40.515Z,5.61
2023-04-09T15:52:40.510Z,5.5
2023-04-09T15:54:40.525Z,5.5
2023-04-09T15:56:40.519Z,5.5
2023-04-09T15:57:40.529Z,5.61
2023-04-09T15:59:40.521Z,6
2023-04-09T16:00:40.528Z,5.89
2023-04-09T16:01:40.591Z,5.94
2023-04-09T16:02:40.508Z,5.83
2023-04-09T16:03:40.526Z,5.67
2023-04-09T16:04:40.567Z,5.78
2023-04-09T16:05:40.588Z,5.56
2023-04-09T16:07:40.520Z,5.78
2023-04-09T16:08:40.524Z,5.78
2023-04-09T16:09:40.530Z,5.56
2023-04-09T16:11:40.538Z,5.94
2023-04-09T16:12:40.520Z,5.56
2023-04-09T16:13:40.543Z,5.94
2023-04-09T16:14:40.532Z,5.67
2023-04-09T16:16:40.582Z,5.56
2023-04-09T16:17:41.046Z,5.94
2023-04-09T16:18:40.522Z,5.78
2023-04-09T16:19:40.567Z,5.67
2023-04-09T16:20:40.525Z,5.94
2023-04-09T16:21:40.558Z,5.78
2023-04-09T16:22:40.529Z,5.78
2023-04-09T16:23:40.543Z,5.94
2023-04-09T16:24:40.532Z,5.94
2023-04-09T16:25:40.536Z,5.39
2023-04-09T16:27:40.542Z,5.67
2023-04-09T16:28:40.528Z,5.78
2023-04-09T16:29:40.530Z,5.78
2023-04-09T16:30:40.538Z,5.78
2023-04-09T16:32:40.574Z,5.78
2023-04-09T16:33:40.552Z,5.56
2023-04-09T16:35:40.551Z,5.94
2023-04-09T16:36:40.521Z,5.78
2023-04-09T16:37:40.559Z,5.94
2023-04-09T16:39:40.533Z,6.06
2023-04-09T16:40:40.614Z,7.78
2023-04-09T16:41:40.526Z,8.5
2023-04-09T16:42:40.546Z,8.61
2023-04-09T16:44:40.533Z,8.94
2023-04-09T16:46:40.549Z,7.67
2023-04-09T16:48:40.541Z,7.11
2023-04-09T16:49:40.524Z,6.94
2023-04-09T16:50:40.575Z,7.5
2023-04-09T16:51:40.553Z,7.11
2023-04-09T16:52:40.536Z,6.67
2023-04-09T16:53:40.560Z,6.22
2023-04-09T16:55:40.554Z,7.5
2023-04-09T16:56:40.535Z,7.94
2023-04-09T16:57:40.561Z,8.61